createdAt,value
2019-03-31T00:04:27.303Z,79.67
2019-03-31T00:09:31.474Z,79.12
2019-03-31T00:14:35.274Z,78.37
2019-03-31T00:19:39.301Z,79.25
2019-03-31T00:24:43.153Z,79.32
2019-03-31T00:29:46.972Z,79.62
2019-03-31T00:34:50.801Z,79.90
2019-03-31T00:39:54.600Z,79.97
2019-03-31T00:44:58.502Z,79.85
2019-03-31T00:50:02.385Z,81.95
2019-03-31T00:55:06.183Z,81.86
2019-03-31T01:00:13.150Z,80.94
2019-03-31T01:05:17.195Z,81.33
2019-03-31T01:10:21.325Z,83.00
2019-03-31T01:15:25.901Z,82.30
2019-03-31T01:20:29.878Z,81.27
2019-03-31T01:25:34.112Z,81.77
2019-03-31T01:30:38.018Z,83.92
2019-03-31T01:35:41.790Z,83.53
2019-03-31T01:40:46.252Z,82.39
2019-03-31T01:45:50.356Z,83.19
2019-03-31T01:50:54.289Z,82.69
2019-03-31T01:55:58.100Z,82.96
2019-03-31T02:01:04.085Z,86.19
2019-03-31T02:06:08.249Z,85.15
2019-03-31T02:11:12.083Z,85.94
2019-03-31T02:16:16.195Z,87.18
2019-03-31T02:21:20.134Z,85.63
2019-03-31T02:26:23.864Z,86.49
2019-03-31T02:31:28.260Z,84.79
2019-03-31T02:36:32.021Z,84.25
2019-03-31T02:41:35.990Z,83.91
2019-03-31T02:46:39.922Z,85.44
2019-03-31T02:51:43.670Z,86.91
2019-03-31T02:56:48.850Z,85.55
2019-03-31T03:01:54.624Z,83.56
2019-03-31T03:07:01.770Z,84.60
2019-03-31T03:12:09.146Z,84.11
2019-03-31T03:17:12.971Z,83.80
2019-03-31T03:22:17.113Z,83.71
2019-03-31T03:27:21.045Z,84.30
2019-03-31T03:32:25.042Z,84.79
2019-03-31T03:37:28.930Z,85.43
2019-03-31T03:42:32.911Z,86.42
2019-03-31T03:47:36.722Z,86.32
2019-03-31T03:52:40.754Z,87.03
2019-03-31T03:57:44.744Z,85.37
2019-03-31T04:02:48.558Z,84.47
2019-03-31T04:07:52.387Z,84.94
2019-03-31T04:12:56.543Z,84.83
2019-03-31T04:18:00.349Z,84.66
2019-03-31T04:23:04.149Z,83.62
2019-03-31T04:28:07.971Z,83.80
2019-03-31T04:33:11.912Z,84.85
2019-03-31T04:38:15.762Z,84.31
2019-03-31T04:43:19.797Z,85.27
2019-03-31T04:48:23.847Z,88.26
2019-03-31T04:53:27.584Z,89.13
2019-03-31T04:58:31.608Z,87.37
2019-03-31T05:03:35.390Z,87.60
2019-03-31T05:08:39.469Z,87.23
2019-03-31T05:13:43.270Z,88.47
2019-03-31T05:18:47.145Z,86.45
2019-03-31T05:23:51.251Z,86.45
2019-03-31T05:28:55.529Z,84.48
2019-03-31T05:33:59.499Z,83.18
2019-03-31T05:39:05.611Z,79.71
2019-03-31T05:44:09.403Z,78.69
2019-03-31T05:49:13.531Z,77.20
2019-03-31T05:54:17.387Z,77.25
2019-03-31T05:59:21.286Z,79.53
2019-03-31T06:04:32.975Z,78.31
2019-03-31T06:09:31.257Z,75.79
2019-03-31T06:14:35.113Z,73.57
2019-03-31T06:19:39.359Z,71.53
2019-03-31T06:24:43.145Z,69.38
2019-03-31T06:29:46.990Z,68.05
2019-03-31T06:34:50.764Z,67.36
2019-03-31T06:39:54.762Z,66.91
2019-03-31T06:44:59.201Z,64.92
2019-03-31T06:50:03.863Z,65.31
2019-03-31T06:55:08.113Z,65.07
2019-03-31T07:00:12.535Z,64.19
2019-03-31T07:05:16.327Z,63.20
2019-03-31T07:10:20.522Z,61.60
2019-03-31T07:15:24.395Z,62.33
2019-03-31T07:20:28.350Z,61.48
2019-03-31T07:25:32.326Z,60.92
2019-03-31T07:30:36.298Z,60.72
2019-03-31T07:35:40.119Z,59.82
2019-03-31T07:40:44.195Z,57.23
2019-03-31T07:45:48.099Z,56.72
2019-03-31T07:50:51.883Z,55.82
2019-03-31T07:55:55.787Z,53.78
2019-03-31T08:00:59.558Z,52.33
2019-03-31T08:06:03.396Z,52.39
2019-03-31T08:11:07.216Z,50.84
2019-03-31T08:16:11.087Z,50.60
2019-03-31T08:21:14.915Z,50.02
2019-03-31T08:26:18.805Z,50.04
2019-03-31T08:31:22.698Z,49.59
2019-03-31T08:36:26.587Z,47.09
2019-03-31T08:41:30.580Z,45.61
2019-03-31T08:46:34.347Z,47.36
2019-03-31T08:51:38.194Z,45.42
2019-03-31T08:56:41.963Z,46.05
2019-03-31T09:01:45.791Z,44.89
2019-03-31T09:06:49.686Z,44.69
2019-03-31T09:11:53.530Z,44.75
2019-03-31T09:16:57.365Z,45.70
2019-03-31T09:22:01.574Z,46.62
2019-03-31T09:27:05.429Z,44.88
2019-03-31T09:32:09.294Z,45.06
2019-03-31T09:37:13.090Z,44.77
2019-03-31T09:42:16.872Z,44.92
2019-03-31T09:47:20.733Z,43.55
2019-03-31T09:52:25.256Z,43.55
2019-03-31T09:57:29.547Z,42.46
2019-03-31T10:02:33.803Z,41.50
2019-03-31T10:07:38.442Z,41.61
2019-03-31T10:12:42.752Z,40.64
2019-03-31T10:17:46.902Z,40.29
2019-03-31T10:22:50.737Z,40.17
2019-03-31T10:27:54.511Z,38.69
2019-03-31T10:32:58.664Z,37.57
2019-03-31T10:38:03.197Z,36.64
2019-03-31T10:43:07.319Z,35.17
2019-03-31T10:48:20.164Z,35.61
2019-03-31T10:53:16.959Z,36.26
2019-03-31T10:58:21.146Z,36.46
2019-03-31T11:03:25.075Z,33.08
2019-03-31T11:08:28.875Z,31.87
2019-03-31T11:13:32.668Z,30.54
2019-03-31T11:18:36.494Z,29.04
2019-03-31T11:23:40.313Z,28.14
2019-03-31T11:28:44.099Z,27.62
2019-03-31T11:33:47.980Z,28.59
2019-03-31T11:38:51.795Z,28.36
2019-03-31T11:43:55.785Z,28.02
2019-03-31T11:48:59.698Z,29.98
2019-03-31T11:54:03.475Z,29.38
2019-03-31T11:59:07.414Z,29.52
2019-03-31T12:04:11.205Z,31.05
2019-03-31T12:09:15.086Z,31.33
2019-03-31T12:14:19.115Z,31.46
2019-03-31T12:19:23.001Z,30.75
2019-03-31T12:24:27.345Z,30.33
2019-03-31T12:29:31.301Z,29.45
2019-03-31T12:34:35.105Z,29.45
2019-03-31T12:39:39.188Z,29.81
2019-03-31T12:44:42.986Z,28.71
2019-03-31T12:49:46.969Z,28.00
2019-03-31T12:54:50.825Z,28.95
2019-03-31T12:59:54.633Z,30.12
2019-03-31T13:04:58.582Z,30.10
2019-03-31T13:10:02.871Z,29.66
2019-03-31T13:15:06.846Z,28.99
2019-03-31T13:20:10.857Z,28.66
2019-03-31T13:25:14.862Z,29.53
2019-03-31T13:30:21.905Z,29.78
2019-03-31T13:35:25.193Z,29.46
2019-03-31T13:40:29.027Z,29.97
2019-03-31T13:45:32.799Z,28.53
2019-03-31T13:50:36.600Z,29.20
2019-03-31T13:55:40.481Z,27.83
2019-03-31T14:00:47.380Z,27.89
2019-03-31T14:05:51.502Z,29.50
2019-03-31T14:10:55.464Z,28.61
2019-03-31T14:15:59.642Z,29.17
2019-03-31T14:21:03.795Z,29.87
2019-03-31T14:26:07.763Z,29.96
2019-03-31T14:31:11.755Z,30.80
2019-03-31T14:36:15.831Z,30.92
2019-03-31T14:41:19.562Z,31.15
2019-03-31T14:46:23.665Z,32.43
2019-03-31T14:51:27.721Z,30.95
2019-03-31T14:56:31.591Z,31.17
2019-03-31T15:01:35.463Z,31.60
2019-03-31T15:06:39.577Z,31.62
2019-03-31T15:11:43.393Z,32.10
2019-03-31T15:16:48.591Z,32.61
2019-03-31T15:21:52.892Z,32.78
2019-03-31T15:26:56.937Z,33.68
2019-03-31T15:32:00.863Z,33.84
2019-03-31T15:37:06.031Z,32.83
2019-03-31T15:42:10.104Z,33.77
2019-03-31T15:47:14.093Z,33.16
2019-03-31T15:52:18.432Z,33.57
2019-03-31T15:57:22.241Z,33.95
2019-03-31T16:02:27.299Z,33.86
2019-03-31T16:07:31.391Z,34.36
2019-03-31T16:12:34.633Z,34.97
2019-03-31T16:17:37.695Z,35.93
2019-03-31T16:22:40.663Z,36.21
2019-03-31T16:27:43.992Z,36.87
2019-03-31T16:32:47.402Z,38.00
2019-03-31T16:37:50.407Z,39.08
2019-03-31T16:42:53.396Z,38.95
2019-03-31T16:47:56.362Z,39.49
2019-03-31T16:52:59.907Z,39.60
2019-03-31T16:58:02.957Z,40.20
2019-03-31T17:03:06.047Z,39.89
2019-03-31T17:08:09.097Z,40.98
2019-03-31T17:13:12.260Z,42.12
2019-03-31T17:18:15.850Z,43.17
2019-03-31T17:23:19.082Z,44.37
2019-03-31T17:28:22.217Z,45.65
2019-03-31T17:33:25.503Z,46.10
2019-03-31T17:38:28.584Z,46.88
2019-03-31T17:43:32.025Z,47.44
2019-03-31T17:48:35.851Z,47.96
2019-03-31T17:53:39.062Z,48.53
2019-03-31T17:58:42.257Z,49.45
2019-03-31T18:03:45.389Z,50.67
2019-03-31T18:08:48.831Z,51.78
2019-03-31T18:13:52.089Z,52.72
2019-03-31T18:18:55.340Z,54.06
2019-03-31T18:23:58.823Z,55.18
2019-03-31T18:29:01.906Z,56.07
2019-03-31T18:34:05.347Z,56.82
2019-03-31T18:39:08.704Z,57.74
2019-03-31T18:44:11.969Z,58.36
2019-03-31T18:49:15.162Z,58.87
2019-03-31T18:54:49.891Z,59.51
2019-03-31T19:00:21.408Z,59.79
2019-03-31T19:05:36.141Z,60.12
2019-03-31T19:10:57.486Z,59.26
2019-03-31T19:16:15.754Z,59.40
2019-03-31T19:21:44.582Z,57.28
2019-03-31T19:27:14.048Z,57.12
2019-03-31T19:32:39.594Z,57.15
2019-03-31T19:37:50.997Z,57.26
2019-03-31T19:43:16.849Z,57.61
2019-03-31T19:48:39.500Z,57.45
2019-03-31T19:54:00.988Z,58.33
2019-03-31T19:59:33.011Z,59.17
2019-03-31T20:04:45.880Z,60.16
2019-03-31T20:10:04.812Z,60.94
2019-03-31T20:15:21.848Z,61.38
2019-03-31T20:20:34.832Z,61.26
2019-03-31T20:25:56.247Z,61.20
2019-03-31T20:31:24.493Z,61.36
2019-03-31T20:36:45.660Z,61.71
2019-03-31T20:41:59.978Z,61.66
2019-03-31T20:47:03.025Z,62.57
2019-03-31T20:52:06.000Z,62.82
2019-03-31T20:57:09.043Z,63.01
2019-03-31T21:02:12.026Z,63.77
2019-03-31T21:07:15.061Z,63.77
2019-03-31T21:12:18.269Z,63.86
2019-03-31T21:17:21.356Z,63.69
2019-03-31T21:22:24.333Z,63.70
2019-03-31T21:27:27.475Z,63.79
2019-03-31T21:32:30.451Z,64.23
2019-03-31T21:37:33.440Z,64.39
2019-03-31T21:42:36.429Z,64.54
2019-03-31T21:47:39.432Z,64.83
2019-03-31T21:52:42.690Z,64.64
2019-03-31T21:57:45.671Z,65.24
2019-03-31T22:02:48.651Z,65.12
2019-03-31T22:07:51.652Z,65.10
2019-03-31T22:12:54.599Z,65.22
2019-03-31T22:17:57.706Z,64.62
2019-03-31T22:23:00.691Z,64.61
2019-03-31T22:28:04.207Z,65.42
2019-03-31T22:33:07.526Z,65.42
2019-03-31T22:38:10.576Z,65.43
2019-03-31T22:43:13.603Z,65.76
2019-03-31T22:48:16.828Z,65.57
2019-03-31T22:53:19.792Z,66.35
2019-03-31T22:58:23.258Z,66.03
2019-03-31T23:03:26.319Z,65.72
2019-03-31T23:08:29.278Z,65.40
2019-03-31T23:13:32.394Z,64.59
2019-03-31T23:18:35.386Z,64.11
2019-03-31T23:23:38.449Z,64.13
2019-03-31T23:28:47.360Z,63.89
2019-03-31T23:33:50.465Z,63.85
2019-03-31T23:38:53.512Z,63.73
2019-03-31T23:43:56.535Z,63.00
2019-03-31T23:48:59.635Z,62.97
2019-03-31T23:54:02.606Z,62.80
2019-03-31T23:59:06.196Z,61.94
